Time;durP1;ratioP1;P1;durP2;ratioP2;P2;SDS_P1;SDS_P2;PMS_P1;PMS_P2;Temp;Humidity;BMP_temperature;BMP_pressure;BME280_temperature;BME280_humidity;BME280_pressure;Samples;Min_cycle;Max_cycle;Signal;HPM_P1;HPM_P2
2021/12/01 00:01:53;;;;;;;0.35;0.10;;;-0.10;98.10;;;;;;20808083;28;20095;-50
2021/12/01 00:11:55;;;;;;;0.00;0.00;;;0.40;98.10;;;;;;20791252;28;20087;-50
2021/12/01 00:21:58;;;;;;;0.00;0.00;;;4.40;95.90;;;;;;20806782;28;20087;-52
2021/12/01 00:32:00;;;;;;;0.35;0.10;;;4.40;90.30;;;;;;20804969;28;20042;-53
2021/12/01 00:42:03;;;;;;;0.45;0.15;;;2.50;93.20;;;;;;20805481;28;20045;-49
2021/12/01 00:52:07;;;;;;;0.20;0.00;;;1.20;95.80;;;;;;20804889;28;20033;-52
2021/12/01 01:02:10;;;;;;;1.00;0.00;;;0.50;97.20;;;;;;20803613;28;20064;-53
2021/12/01 01:22:34;;;;;;;0.17;0.00;;;0.30;97.70;;;;;;20802330;28;20498;-51
2021/12/01 01:32:38;;;;;;;0.95;0.13;;;0.20;99.90;;;;;;20801467;28;20041;-53
2021/12/01 01:42:41;;;;;;;0.35;0.20;;;0.80;98.40;;;;;;20800501;28;20041;-48
2021/12/01 01:52:45;;;;;;;0.15;0.10;;;0.30;98.50;;;;;;20801785;28;20029;-49
2021/12/01 02:02:48;;;;;;;0.85;0.10;;;-0.40;98.90;;;;;;20800614;28;20037;-53
2021/12/01 02:12:50;;;;;;;0.70;0.20;;;-0.40;98.70;;;;;;20800077;28;20069;-50
2021/12/01 02:22:53;;;;;;;0.47;0.10;;;-0.50;99.90;;;;;;20799180;28;20079;-51
2021/12/01 02:32:56;;;;;;;0.10;0.05;;;-0.50;99.90;;;;;;20798449;28;20045;-52
2021/12/01 02:43:00;;;;;;;0.38;0.10;;;-0.30;99.90;;;;;;20798600;28;20037;-54
2021/12/01 02:53:03;;;;;;;0.93;0.03;;;-0.40;99.90;;;;;;20805276;28;20107;-49
2021/12/01 03:03:06;;;;;;;0.10;0.00;;;-0.50;99.90;;;;;;20813576;28;20445;-48
2021/12/01 03:13:11;;;;;;;0.08;0.00;;;-0.40;99.90;;;;;;20812258;28;20375;-51
2021/12/01 03:23:15;;;;;;;0.20;0.00;;;-0.30;99.90;;;;;;20811566;28;20544;-50
2021/12/01 03:33:21;;;;;;;0.30;0.10;;;-0.60;99.90;;;;;;20810468;28;20486;-53
2021/12/01 03:43:25;;;;;;;0.17;0.00;;;-0.80;99.90;;;;;;20810296;28;20470;-51
2021/12/01 03:53:28;;;;;;;0.30;0.00;;;-0.40;99.90;;;;;;20809546;28;20095;-50
2021/12/01 04:03:30;;;;;;;0.10;0.00;;;-0.40;99.90;;;;;;20807818;28;20448;-51
2021/12/01 04:13:33;;;;;;;0.10;0.00;;;-0.70;99.90;;;;;;20807438;28;20041;-52
2021/12/01 04:23:35;;;;;;;0.25;0.05;;;-0.60;99.90;;;;;;20806861;28;20045;-49
2021/12/01 04:33:38;;;;;;;0.10;0.10;;;-0.70;99.90;;;;;;20805901;28;20406;-48
2021/12/01 04:43:41;;;;;;;1.85;0.10;;;-1.00;99.90;;;;;;20805165;28;20094;-48
2021/12/01 04:53:45;;;;;;;0.43;0.03;;;-1.30;99.90;;;;;;20804036;28;20064;-54
2021/12/01 05:03:48;;;;;;;1.48;0.10;;;-1.60;99.90;;;;;;20803615;28;20037;-50
2021/12/01 05:13:52;;;;;;;0.20;0.10;;;-1.70;99.90;;;;;;20803287;28;20041;-51
2021/12/01 05:23:54;;;;;;;0.10;0.00;;;-1.80;99.90;;;;;;20802032;28;20033;-50
2021/12/01 05:33:57;;;;;;;0.38;0.00;;;-1.80;99.90;;;;;;20801117;28;20053;-49
2021/12/01 05:44:00;;;;;;;0.03;0.00;;;-1.60;99.90;;;;;;20800783;28;20107;-49
2021/12/01 05:54:04;;;;;;;1.50;0.20;;;-1.60;99.90;;;;;;20801617;28;20041;-48
2021/12/01 06:04:07;;;;;;;0.20;0.00;;;-1.50;99.90;;;;;;20801960;28;20107;-49
2021/12/01 06:14:11;;;;;;;0.47;0.08;;;-1.80;99.90;;;;;;20770809;28;20033;-53
2021/12/01 06:24:14;;;;;;;0.10;0.10;;;-2.00;99.90;;;;;;20720336;28;20073;-53
2021/12/01 06:34:17;;;;;;;1.55;0.10;;;-2.20;99.90;;;;;;20768770;28;20049;-53
2021/12/01 06:44:20;;;;;;;0.30;0.10;;;-2.30;99.90;;;;;;20814228;28;20045;-49
2021/12/01 06:54:22;;;;;;;0.38;0.17;;;-2.20;99.90;;;;;;20813689;28;20552;-51
2021/12/01 07:04:26;;;;;;;0.00;0.00;;;-2.30;99.90;;;;;;20814707;28;20034;-51
2021/12/01 07:14:28;;;;;;;1.05;0.20;;;-2.20;99.90;;;;;;20812997;28;20033;-50
2021/12/01 07:24:31;;;;;;;0.10;0.10;;;-2.10;99.90;;;;;;20811775;28;20033;-54
2021/12/01 07:34:41;;;;;;;1.83;0.30;;;-1.90;99.90;;;;;;20810163;28;20103;-53
2021/12/01 07:44:44;;;;;;;0.70;0.10;;;-1.40;99.90;;;;;;20811608;28;20041;-50
2021/12/01 07:54:46;;;;;;;0.55;0.20;;;-0.80;99.90;;;;;;20809495;28;20095;-48
2021/12/01 08:04:49;;;;;;;2.47;0.30;;;-0.10;99.90;;;;;;20808594;28;20064;-52
2021/12/01 08:14:52;;;;;;;2.83;0.40;;;0.80;99.90;;;;;;20773155;28;20038;-51
2021/12/01 08:24:57;;;;;;;2.42;0.40;;;1.70;99.90;;;;;;20709492;28;20165;-49
2021/12/01 08:35:00;;;;;;;1.95;0.50;;;2.10;99.90;;;;;;20766366;28;20072;-51
2021/12/01 08:45:03;;;;;;;1.15;0.50;;;3.10;99.90;;;;;;20805314;28;20525;-49
2021/12/01 08:55:07;;;;;;;1.85;0.50;;;3.80;99.90;;;;;;20803705;28;20033;-50
2021/12/01 09:05:10;;;;;;;1.73;0.55;;;4.00;99.90;;;;;;20804094;28;20105;-53
2021/12/01 09:15:14;;;;;;;1.48;0.60;;;4.50;99.90;;;;;;20802742;28;20037;-50
2021/12/01 09:25:17;;;;;;;4.13;0.80;;;5.50;99.90;;;;;;20802324;28;20033;-49
2021/12/01 09:35:20;;;;;;;2.33;1.08;;;5.60;99.90;;;;;;20801699;28;20064;-53
2021/12/01 09:45:26;;;;;;;2.33;1.00;;;6.30;99.50;;;;;;20776569;28;20072;-50
2021/12/01 09:55:29;;;;;;;1.95;0.93;;;6.30;99.40;;;;;;20765329;28;20034;-49
2021/12/01 10:05:50;;;;;;;1.35;0.55;;;6.80;99.00;;;;;;20754567;28;20486;-50
2021/12/01 10:15:55;;;;;;;2.30;0.65;;;7.10;98.80;;;;;;20800699;28;20548;-50
2021/12/01 10:26:17;;;;;;;1.45;0.40;;;7.70;97.80;;;;;;20800080;28;20049;-51
2021/12/01 10:36:19;;;;;;;3.00;1.20;;;7.90;97.80;;;;;;20760420;28;20475;-49
2021/12/01 10:46:22;;;;;;;5.80;1.20;;;8.30;97.00;;;;;;20717650;28;20494;-50
2021/12/01 10:56:24;;;;;;;3.70;1.20;;;8.30;96.90;;;;;;20717891;28;20100;-49
2021/12/01 11:06:33;;;;;;;3.30;1.23;;;7.90;97.60;;;;;;20717481;28;20072;-50
2021/12/01 11:16:38;;;;;;;2.10;0.90;;;7.50;98.90;;;;;;20775779;28;20095;-50
2021/12/01 11:26:44;;;;;;;3.13;1.23;;;7.00;98.90;;;;;;20812428;28;20478;-54
2021/12/01 11:36:51;;;;;;;2.10;0.90;;;7.00;99.90;;;;;;20812136;28;20469;-51
2021/12/01 11:46:54;;;;;;;3.67;0.82;;;7.60;99.90;;;;;;20810987;28;20045;-52
2021/12/01 11:57:00;;;;;;;1.50;0.63;;;7.00;99.90;;;;;;20810287;28;20438;-52
2021/12/01 12:07:12;;;;;;;3.03;1.50;;;7.00;99.90;;;;;;20810068;28;20459;-53
2021/12/01 12:17:18;;;;;;;4.45;1.92;;;7.10;99.90;;;;;;20756317;28;20108;-51
2021/12/01 12:27:42;;;;;;;2.88;1.40;;;7.40;99.90;;;;;;20720500;28;20038;-59
2021/12/01 12:37:45;;;;;;;4.03;1.50;;;6.80;99.90;;;;;;20690521;28;20054;-59
2021/12/01 12:47:49;;;;;;;5.03;2.22;;;5.70;99.90;;;;;;20723332;28;20104;-57
2021/12/01 12:57:57;;;;;;;4.35;2.80;;;5.50;99.90;;;;;;20723072;28;20640;-59
2021/12/01 13:08:00;;;;;;;5.10;3.08;;;5.70;99.90;;;;;;20723552;28;20088;-53
2021/12/01 13:18:08;;;;;;;6.78;3.60;;;6.20;99.90;;;;;;20546660;28;20133;-50
2021/12/01 13:28:25;;;;;;;9.30;4.10;;;5.40;99.90;;;;;;20550956;28;20233;-49
2021/12/01 13:38:34;;;;;;;9.30;4.32;;;4.70;99.90;;;;;;20549667;28;20152;-50
2021/12/01 13:48:52;;;;;;;7.55;3.88;;;3.90;99.90;;;;;;20549643;28;20085;-54
2021/12/01 13:59:00;;;;;;;8.43;4.30;;;3.60;99.90;;;;;;20694360;28;20459;-53
2021/12/01 14:09:27;;;;;;;8.82;3.58;;;3.30;99.90;;;;;;20799681;28;20569;-51
2021/12/01 14:19:33;;;;;;;7.13;3.17;;;3.10;99.90;;;;;;20799460;28;20099;-55
2021/12/01 14:29:38;;;;;;;8.13;3.58;;;2.70;99.90;;;;;;20799132;28;20548;-49
2021/12/01 14:39:42;;;;;;;5.68;2.03;;;2.80;99.90;;;;;;20798515;28;20046;-52
2021/12/01 14:49:53;;;;;;;6.38;2.53;;;2.90;99.90;;;;;;20806632;28;20060;-52
2021/12/01 14:59:57;;;;;;;;;;;2.80;99.90;;;;;;20814672;28;20037;-54
2021/12/01 15:10:15;;;;;;;3.75;1.63;;;2.60;99.90;;;;;;20813387;28;19951;-54
2021/12/01 15:20:17;;;;;;;4.10;1.52;;;2.60;99.90;;;;;;20812630;28;20033;-49
2021/12/01 15:30:21;;;;;;;2.60;1.40;;;2.40;99.90;;;;;;20812711;28;20575;-49
2021/12/01 15:40:24;;;;;;;2.80;0.40;;;2.20;99.90;;;;;;20794375;28;20045;-53
2021/12/01 15:50:27;;;;;;;2.35;0.50;;;2.20;99.90;;;;;;20810026;28;20114;-53
2021/12/01 16:00:30;;;;;;;2.30;0.73;;;2.30;99.90;;;;;;20808611;28;20068;-53
2021/12/01 16:10:34;;;;;;;1.42;0.47;;;2.40;99.90;;;;;;20808381;28;20422;-52
2021/12/01 16:20:37;;;;;;;0.90;0.50;;;2.40;99.90;;;;;;20807492;28;20033;-55
2021/12/01 16:30:42;;;;;;;2.03;0.80;;;2.40;99.90;;;;;;20806443;28;20041;-49
2021/12/01 16:40:47;;;;;;;3.70;0.68;;;2.40;99.90;;;;;;20805837;28;20049;-53
2021/12/01 16:50:52;;;;;;;1.00;0.38;;;2.40;99.90;;;;;;20789489;28;20041;-49
2021/12/01 17:00:58;;;;;;;1.48;0.50;;;2.30;99.90;;;;;;20804801;28;20421;-50
2021/12/01 17:11:02;;;;;;;3.25;0.98;;;2.30;99.90;;;;;;20801592;28;20053;-53
2021/12/01 17:21:05;;;;;;;7.75;2.00;;;2.30;99.90;;;;;;20721635;28;20391;-53
2021/12/01 17:31:36;;;;;;;3.45;1.58;;;2.10;99.90;;;;;;20730233;28;20052;-53
2021/12/01 17:41:36;;;;;;;2.47;1.40;;;2.00;99.90;;;;;;20801862;28;20050;-52
2021/12/01 17:51:38;;;;;;;7.07;1.67;;;1.90;99.90;;;;;;20801246;28;20363;-54
2021/12/01 18:01:42;;;;;;;0.90;0.38;;;2.00;99.90;;;;;;20801318;28;20066;-54
2021/12/01 18:11:48;;;;;;;5.00;2.67;;;2.30;99.90;;;;;;20817912;28;20095;-52
2021/12/01 18:21:50;;;;;;;4.28;1.40;;;2.10;99.90;;;;;;20805545;28;20088;-53
2021/12/01 18:31:54;;;;;;;1.02;0.30;;;1.40;99.90;;;;;;20815620;28;20095;-54
2021/12/01 18:41:58;;;;;;;1.25;0.30;;;2.30;99.90;;;;;;20816106;28;20042;-54
2021/12/01 18:52:02;;;;;;;3.25;0.10;;;2.50;99.90;;;;;;20814851;28;20095;-52
2021/12/01 19:02:04;;;;;;;1.15;0.20;;;2.80;99.90;;;;;;20813493;28;20056;-49
2021/12/01 19:12:08;;;;;;;2.58;0.20;;;2.90;99.90;;;;;;20645991;28;20483;-50
2021/12/01 19:22:11;;;;;;;1.63;0.82;;;2.60;99.90;;;;;;20561187;28;20086;-55
2021/12/01 19:32:14;;;;;;;1.30;0.25;;;2.20;99.90;;;;;;20574305;28;20110;-50
2021/12/01 19:42:17;;;;;;;1.90;0.65;;;1.90;99.90;;;;;;20639416;28;20396;-55
2021/12/01 19:52:23;;;;;;;2.05;0.93;;;2.20;99.90;;;;;;20685775;28;20490;-55
2021/12/01 20:02:26;;;;;;;4.30;1.70;;;1.80;99.90;;;;;;20760350;28;20479;-52
2021/12/01 20:12:30;;;;;;;3.60;1.60;;;1.50;99.90;;;;;;20742908;28;20037;-51
2021/12/01 20:22:35;;;;;;;3.42;1.67;;;1.30;99.90;;;;;;20726090;28;20041;-53
2021/12/01 20:32:42;;;;;;;3.17;1.83;;;1.20;99.90;;;;;;20744487;28;20417;-52
2021/12/01 20:42:49;;;;;;;10.20;4.30;;;1.40;99.90;;;;;;20756352;28;20042;-52
2021/12/01 20:53:06;;;;;;;3.50;1.85;;;0.90;99.90;;;;;;20723406;28;20034;-54
2021/12/01 21:03:13;;;;;;;0.55;0.10;;;0.90;99.90;;;;;;20723019;28;20041;-52
2021/12/01 21:13:18;;;;;;;0.60;0.20;;;2.00;99.90;;;;;;20744363;28;20383;-54
2021/12/01 21:23:23;;;;;;;4.35;1.27;;;3.10;99.90;;;;;;20802561;28;20096;-54
2021/12/01 21:33:26;;;;;;;1.15;0.45;;;2.40;99.90;;;;;;20802104;28;20041;-49
2021/12/01 21:43:31;;;;;;;4.07;1.50;;;1.90;99.90;;;;;;20801339;28;20095;-50
2021/12/01 21:53:35;;;;;;;5.30;2.30;;;1.90;99.90;;;;;;20800984;28;20046;-55
2021/12/01 22:03:41;;;;;;;7.13;3.25;;;1.50;99.90;;;;;;20800336;28;20103;-52
2021/12/01 22:13:43;;;;;;;192.43;12.38;;;1.20;99.90;;;;;;20775288;28;20092;-53
2021/12/01 22:23:51;;;;;;;258.67;14.35;;;1.00;99.90;;;;;;20718460;28;20059;-55
2021/12/01 22:33:54;;;;;;;79.15;6.28;;;0.80;99.90;;;;;;20747660;28;20259;-50
2021/12/01 22:44:02;;;;;;;337.35;17.65;;;0.80;99.90;;;;;;20799061;28;20068;-51
2021/12/01 22:54:05;;;;;;;78.85;6.35;;;0.70;99.90;;;;;;20799178;28;20052;-52
2021/12/01 23:04:15;;;;;;;5.45;3.13;;;0.70;99.90;;;;;;20797967;28;20041;-51
2021/12/01 23:14:18;;;;;;;180.75;11.63;;;0.70;99.90;;;;;;20810709;28;20033;-52
2021/12/01 23:34:43;;;;;;;150.43;8.30;;;0.70;99.90;;;;;;20811470;28;20713;-51
2021/12/01 23:44:48;;;;;;;104.13;5.03;;;0.70;99.90;;;;;;20811081;28;20402;-51
2021/12/01 23:54:56;;;;;;;138.30;8.77;;;0.70;99.90;;;;;;20810097;28;20038;-54
